Terminal Aerodrome Forecast
Issued by NWS Charleston, WV

Current Version | Previous Version | Graphics & Text | Print | Product List | Glossary On
Versions: 1 2 3 4 5 6 7 8 9 10 11 12 13 14 15 16 17 18 19 20 21 22 23 24 25 26 27
133
FTUS41 KRLX 191722
TAFCRW
TAF
KCRW 191722Z 1918/2018 22012KT P6SM BKN070
     FM192000 21006KT P6SM BKN150
     FM192300 19004KT P6SM SCT150
     FM201400 19006KT P6SM FEW050
     FM201600 20008G15KT P6SM FEW060=

USA.gov is the U.S. government's official web portal to all federal, state and local government web resources and services.